sensor_id;sensor_type;location;lat;lon;timestamp;pressure;altitude;pressure_sealevel;temperature;humidity
14343;BME280;7255;53.596;9.960;2023-09-12T00:00:23;101043.94;;;20.94;100.00
14343;BME280;7255;53.596;9.960;2023-09-12T00:02:50;101045.41;;;20.82;100.00
14343;BME280;7255;53.596;9.960;2023-09-12T00:05:16;101052.00;;;20.75;100.00
14343;BME280;7255;53.596;9.960;2023-09-12T00:07:43;101058.66;;;20.59;100.00
14343;BME280;7255;53.596;9.960;2023-09-12T00:10:09;101053.63;;;20.76;100.00
14343;BME280;7255;53.596;9.960;2023-09-12T00:12:37;101063.50;;;20.72;100.00
14343;BME280;7255;53.596;9.960;2023-09-12T00:15:04;101060.25;;;20.70;100.00
14343;BME280;7255;53.596;9.960;2023-09-12T00:17:30;101055.28;;;20.77;100.00
14343;BME280;7255;53.596;9.960;2023-09-12T00:19:56;101047.59;;;20.80;100.00
14343;BME280;7255;53.596;9.960;2023-09-12T00:22:23;101059.75;;;20.63;100.00
14343;BME280;7255;53.596;9.960;2023-09-12T00:24:49;101040.13;;;20.61;100.00
14343;BME280;7255;53.596;9.960;2023-09-12T00:27:15;101055.72;;;20.50;100.00
14343;BME280;7255;53.596;9.960;2023-09-12T00:29:43;101040.22;;;20.41;100.00
14343;BME280;7255;53.596;9.960;2023-09-12T00:32:09;101052.75;;;20.42;100.00
14343;BME280;7255;53.596;9.960;2023-09-12T00:34:35;101059.88;;;20.43;100.00
14343;BME280;7255;53.596;9.960;2023-09-12T00:37:02;101055.50;;;20.36;100.00
14343;BME280;7255;53.596;9.960;2023-09-12T00:39:28;101048.34;;;20.46;100.00
14343;BME280;7255;53.596;9.960;2023-09-12T00:41:55;101049.81;;;20.33;100.00
14343;BME280;7255;53.596;9.960;2023-09-12T00:44:21;101033.44;;;20.33;100.00
14343;BME280;7255;53.596;9.960;2023-09-12T00:46:49;101030.44;;;20.34;100.00
14343;BME280;7255;53.596;9.960;2023-09-12T00:49:17;101032.63;;;20.32;100.00
14343;BME280;7255;53.596;9.960;2023-09-12T00:51:44;101028.06;;;20.23;100.00
14343;BME280;7255;53.596;9.960;2023-09-12T00:54:11;101033.25;;;20.19;100.00
14343;BME280;7255;53.596;9.960;2023-09-12T00:56:38;101031.56;;;20.28;100.00
14343;BME280;7255;53.596;9.960;2023-09-12T00:59:04;101024.56;;;20.17;100.00
14343;BME280;7255;53.596;9.960;2023-09-12T01:01:31;101032.66;;;20.27;100.00
14343;BME280;7255;53.596;9.960;2023-09-12T01:04:00;101031.56;;;20.28;100.00
14343;BME280;7255;53.596;9.960;2023-09-12T01:06:28;101015.75;;;20.25;100.00
14343;BME280;7255;53.596;9.960;2023-09-12T01:08:55;101020.34;;;20.35;100.00
14343;BME280;7255;53.596;9.960;2023-09-12T01:11:22;101018.22;;;20.27;100.00
14343;BME280;7255;53.596;9.960;2023-09-12T01:13:48;101006.34;;;20.47;100.00
14343;BME280;7255;53.596;9.960;2023-09-12T01:16:15;101008.59;;;20.34;100.00
14343;BME280;7255;53.596;9.960;2023-09-12T01:18:41;101005.28;;;20.43;100.00
14343;BME280;7255;53.596;9.960;2023-09-12T01:21:39;100990.78;;;20.47;100.00
14343;BME280;7255;53.596;9.960;2023-09-12T01:24:25;100986.72;;;20.45;100.00
14343;BME280;7255;53.596;9.960;2023-09-12T01:27:12;100989.16;;;20.46;100.00
14343;BME280;7255;53.596;9.960;2023-09-12T01:29:40;100970.59;;;20.48;100.00
14343;BME280;7255;53.596;9.960;2023-09-12T01:32:08;100972.44;;;20.53;100.00
14343;BME280;7255;53.596;9.960;2023-09-12T01:34:35;100959.31;;;20.55;100.00
14343;BME280;7255;53.596;9.960;2023-09-12T01:37:02;100968.06;;;20.57;100.00
14343;BME280;7255;53.596;9.960;2023-09-12T01:39:28;100953.62;;;20.51;100.00
14343;BME280;7255;53.596;9.960;2023-09-12T01:41:55;100947.34;;;20.51;100.00
14343;BME280;7255;53.596;9.960;2023-09-12T01:44:25;100960.41;;;20.59;100.00
14343;BME280;7255;53.596;9.960;2023-09-12T01:46:54;100946.22;;;20.57;100.00
14343;BME280;7255;53.596;9.960;2023-09-12T01:49:22;100938.00;;;20.62;100.00
14343;BME280;7255;53.596;9.960;2023-09-12T01:51:50;100945.09;;;20.63;100.00
14343;BME280;7255;53.596;9.960;2023-09-12T01:54:18;100942.91;;;20.65;100.00
14343;BME280;7255;53.596;9.960;2023-09-12T01:56:45;100947.59;;;20.54;100.00
14343;BME280;7255;53.596;9.960;2023-09-12T01:59:12;100964.88;;;20.45;100.00
14343;BME280;7255;53.596;9.960;2023-09-12T02:01:39;100966.19;;;20.52;100.00
14343;BME280;7255;53.596;9.960;2023-09-12T02:04:07;100981.75;;;20.52;100.00
14343;BME280;7255;53.596;9.960;2023-09-12T02:06:34;100988.56;;;20.49;100.00
14343;BME280;7255;53.596;9.960;2023-09-12T02:09:00;100990.28;;;20.40;100.00
14343;BME280;7255;53.596;9.960;2023-09-12T02:11:27;100994.75;;;20.26;100.00
14343;BME280;7255;53.596;9.960;2023-09-12T02:13:53;101008.94;;;20.28;100.00
14343;BME280;7255;53.596;9.960;2023-09-12T02:16:20;101007.03;;;20.23;100.00
14343;BME280;7255;53.596;9.960;2023-09-12T02:18:47;101013.94;;;20.10;100.00
14343;BME280;7255;53.596;9.960;2023-09-12T02:21:14;101018.00;;;20.13;100.00
14343;BME280;7255;53.596;9.960;2023-09-12T02:23:41;101003.53;;;20.17;100.00
14343;BME280;7255;53.596;9.960;2023-09-12T02:26:07;101001.59;;;20.23;100.00
14343;BME280;7255;53.596;9.960;2023-09-12T02:28:33;101015.75;;;20.25;100.00
14343;BME280;7255;53.596;9.960;2023-09-12T02:30:59;101020.41;;;20.25;100.00
14343;BME280;7255;53.596;9.960;2023-09-12T02:33:26;101021.47;;;20.29;100.00
14343;BME280;7255;53.596;9.960;2023-09-12T02:35:53;101015.75;;;20.25;100.00
14343;BME280;7255;53.596;9.960;2023-09-12T02:38:20;101020.91;;;20.32;100.00
14343;BME280;7255;53.596;9.960;2023-09-12T02:40:46;101026.34;;;20.37;100.00
14343;BME280;7255;53.596;9.960;2023-09-12T02:43:12;101029.31;;;20.41;100.00
14343;BME280;7255;53.596;9.960;2023-09-12T02:45:38;101025.56;;;20.31;100.00
14343;BME280;7255;53.596;9.960;2023-09-12T02:48:05;101046.25;;;20.37;100.00
14343;BME280;7255;53.596;9.960;2023-09-12T02:50:31;101042.19;;;20.35;100.00
14343;BME280;7255;53.596;9.960;2023-09-12T02:52:59;101048.34;;;20.46;100.00
14343;BME280;7255;53.596;9.960;2023-09-12T02:55:25;101039.91;;;20.47;100.00
14343;BME280;7255;53.596;9.960;2023-09-12T02:57:51;101050.37;;;20.30;100.00
14343;BME280;7255;53.596;9.960;2023-09-12T03:00:19;101056.12;;;20.28;100.00
14343;BME280;7255;53.596;9.960;2023-09-12T03:02:45;101061.56;;;20.33;100.00
14343;BME280;7255;53.596;9.960;2023-09-12T03:05:11;101063.69;;;20.42;100.00
14343;BME280;7255;53.596;9.960;2023-09-12T03:07:38;101060.66;;;20.43;100.00
14343;BME280;7255;53.596;9.960;2023-09-12T03:10:06;101041.78;;;20.52;100.00
14343;BME280;7255;53.596;9.960;2023-09-12T03:12:35;101042.72;;;20.32;100.00
14343;BME280;7255;53.596;9.960;2023-09-12T03:15:02;101047.37;;;20.31;100.00
14343;BME280;7255;53.596;9.960;2023-09-12T03:17:29;101050.06;;;20.36;100.00
14343;BME280;7255;53.596;9.960;2023-09-12T03:19:55;101052.25;;;20.34;100.00
14343;BME280;7255;53.596;9.960;2023-09-12T03:22:21;101050.56;;;20.44;100.00
14343;BME280;7255;53.596;9.960;2023-09-12T03:24:48;101057.31;;;20.51;100.00
14343;BME280;7255;53.596;9.960;2023-09-12T03:27:15;101066.06;;;20.53;100.00
14343;BME280;7255;53.596;9.960;2023-09-12T03:29:41;101054.66;;;20.46;100.00
14343;BME280;7255;53.596;9.960;2023-09-12T03:32:08;101044.03;;;20.39;100.00
14343;BME280;7255;53.596;9.960;2023-09-12T03:34:34;101033.44;;;20.33;100.00
14343;BME280;7255;53.596;9.960;2023-09-12T03:37:00;101045.09;;;20.44;100.00
14343;BME280;7255;53.596;9.960;2023-09-12T03:39:27;101042.34;;;20.49;100.00
14343;BME280;7255;53.596;9.960;2023-09-12T03:41:53;101053.50;;;20.52;100.00
14343;BME280;7255;53.596;9.960;2023-09-12T03:44:21;101054.06;;;20.49;100.00
14343;BME280;7255;53.596;9.960;2023-09-12T03:46:47;101048.09;;;20.47;100.00
14343;BME280;7255;53.596;9.960;2023-09-12T03:49:13;101034.69;;;20.51;100.00
14343;BME280;7255;53.596;9.960;2023-09-12T03:51:39;101039.09;;;20.47;100.00
14343;BME280;7255;53.596;9.960;2023-09-12T03:54:06;101038.28;;;20.46;100.00
14343;BME280;7255;53.596;9.960;2023-09-12T03:56:32;101041.53;;;20.48;100.00
14343;BME280;7255;53.596;9.960;2023-09-12T03:58:58;101043.16;;;20.49;100.00
14343;BME280;7255;53.596;9.960;2023-09-12T04:01:28;101042.88;;;20.51;100.00
14343;BME280;7255;53.596;9.960;2023-09-12T04:03:54;101036.31;;;20.52;100.00
14343;BME280;7255;53.596;9.960;2023-09-12T04:06:21;101050.00;;;20.47;100.00
14343;BME280;7255;53.596;9.960;2023-09-12T04:08:47;101049.72;;;20.48;100.00
14343;BME280;7255;53.596;9.960;2023-09-12T04:11:13;101036.06;;;20.48;100.00
14343;BME280;7255;53.596;9.960;2023-09-12T04:13:39;101027.63;;;20.50;100.00
14343;BME280;7255;53.596;9.960;2023-09-12T04:16:06;101017.31;;;20.36;100.00
14343;BME280;7255;53.596;9.960;2023-09-12T04:18:33;101007.09;;;20.13;100.00
14343;BME280;7255;53.596;9.960;2023-09-12T04:21:00;101013.66;;;20.12;100.00
14343;BME280;7255;53.596;9.960;2023-09-12T04:23:26;101018.25;;;20.16;100.00
14343;BME280;7255;53.596;9.960;2023-09-12T04:25:52;101013.37;;;20.13;100.00
14343;BME280;7255;53.596;9.960;2023-09-12T04:28:18;101017.44;;;20.16;100.00
14343;BME280;7255;53.596;9.960;2023-09-12T04:30:45;101009.25;;;20.21;100.00
14343;BME280;7255;53.596;9.960;2023-09-12T04:33:11;101014.94;;;20.25;100.00
14343;BME280;7255;53.596;9.960;2023-09-12T04:35:39;101013.00;;;20.30;100.00
14343;BME280;7255;53.596;9.960;2023-09-12T04:38:05;101013.06;;;20.20;100.00
14343;BME280;7255;53.596;9.960;2023-09-12T04:40:32;101014.94;;;20.30;100.00
14343;BME280;7255;53.596;9.960;2023-09-12T04:42:58;101007.28;;;20.27;100.00
14343;BME280;7255;53.596;9.960;2023-09-12T04:45:24;101011.19;;;20.15;100.00
14343;BME280;7255;53.596;9.960;2023-09-12T04:47:50;101013.31;;;20.24;100.00
14343;BME280;7255;53.596;9.960;2023-09-12T04:50:17;101007.59;;;20.20;100.00
14343;BME280;7255;53.596;9.960;2023-09-12T04:52:44;101005.91;;;20.29;100.00
14343;BME280;7255;53.596;9.960;2023-09-12T04:55:11;101005.47;;;20.12;100.00
14343;BME280;7255;53.596;9.960;2023-09-12T04:57:37;101005.53;;;20.02;100.00
14343;BME280;7255;53.596;9.960;2023-09-12T05:00:04;101007.19;;;20.03;100.00
14343;BME280;7255;53.596;9.960;2023-09-12T05:02:31;100986.41;;;20.07;100.00
14343;BME280;7255;53.596;9.960;2023-09-12T05:04:57;100994.88;;;20.05;100.00
14343;BME280;7255;53.596;9.960;2023-09-12T05:07:23;100994.56;;;20.12;100.00
14343;BME280;7255;53.596;9.960;2023-09-12T05:09:51;101010.37;;;20.15;100.00
14343;BME280;7255;53.596;9.960;2023-09-12T05:12:17;101017.44;;;20.16;100.00
14343;BME280;7255;53.596;9.960;2023-09-12T05:14:44;101020.16;;;20.21;100.00
14343;BME280;7255;53.596;9.960;2023-09-12T05:17:10;101022.59;;;20.23;100.00
14343;BME280;7255;53.596;9.960;2023-09-12T05:19:36;101028.28;;;20.31;100.00
14343;BME280;7255;53.596;9.960;2023-09-12T05:22:03;101034.03;;;20.30;100.00
14343;BME280;7255;53.596;9.960;2023-09-12T05:24:29;101017.38;;;20.31;100.00
14343;BME280;7255;53.596;9.960;2023-09-12T05:26:57;101017.41;;;20.26;100.00
14343;BME280;7255;53.596;9.960;2023-09-12T05:29:23;101025.06;;;20.24;100.00
14343;BME280;7255;53.596;9.960;2023-09-12T05:31:49;101041.44;;;20.24;100.00
14343;BME280;7255;53.596;9.960;2023-09-12T05:34:16;101041.69;;;20.28;100.00
14343;BME280;7255;53.596;9.960;2023-09-12T05:36:42;101053.41;;;20.28;100.00
14343;BME280;7255;53.596;9.960;2023-09-12T05:39:08;101046.87;;;20.24;100.00
14343;BME280;7255;53.596;9.960;2023-09-12T05:41:35;101053.44;;;20.18;100.00
14343;BME280;7255;53.596;9.960;2023-09-12T05:44:03;101044.72;;;20.21;100.00
14343;BME280;7255;53.596;9.960;2023-09-12T05:46:29;101059.16;;;20.22;100.00
14343;BME280;7255;53.596;9.960;2023-09-12T05:48:55;101058.09;;;20.17;100.00
14343;BME280;7255;53.596;9.960;2023-09-12T05:51:22;101057.28;;;20.17;100.00
14343;BME280;7255;53.596;9.960;2023-09-12T05:53:48;101058.34;;;20.21;100.00
14343;BME280;7255;53.596;9.960;2023-09-12T05:56:14;101074.94;;;20.30;100.00
14343;BME280;7255;53.596;9.960;2023-09-12T05:58:41;101074.09;;;20.34;100.00
14343;BME280;7255;53.596;9.960;2023-09-12T06:01:09;101044.19;;;20.19;100.00
14343;BME280;7255;53.596;9.960;2023-09-12T06:03:35;101061.06;;;20.26;100.00
14343;BME280;7255;53.596;9.960;2023-09-12T06:06:02;101062.09;;;20.30;100.00
14343;BME280;7255;53.596;9.960;2023-09-12T06:08:29;101053.66;;;20.32;100.00
14343;BME280;7255;53.596;9.960;2023-09-12T06:10:55;101049.00;;;20.32;100.00
14343;BME280;7255;53.596;9.960;2023-09-12T06:13:21;101048.69;;;20.39;100.00
14343;BME280;7255;53.596;9.960;2023-09-12T06:15:48;101038.84;;;20.43;100.00
14343;BME280;7255;53.596;9.960;2023-09-12T06:18:15;101040.72;;;20.48;100.00
14343;BME280;7255;53.596;9.960;2023-09-12T06:20:43;101039.09;;;20.47;100.00
14343;BME280;7255;53.596;9.960;2023-09-12T06:23:09;101041.78;;;20.52;100.00
14343;BME280;7255;53.596;9.960;2023-09-12T06:25:36;101053.47;;;20.63;100.00
14343;BME280;7255;53.596;9.960;2023-09-12T06:28:02;101052.00;;;20.75;100.00
14343;BME280;7255;53.596;9.960;2023-09-12T06:30:29;101047.84;;;20.83;100.00
14343;BME280;7255;53.596;9.960;2023-09-12T06:32:55;101050.22;;;20.90;100.00
14343;BME280;7255;53.596;9.960;2023-09-12T06:35:23;101056.00;;;20.88;100.00
14343;BME280;7255;53.596;9.960;2023-09-12T06:37:49;101062.28;;;20.89;100.00
14343;BME280;7255;53.596;9.960;2023-09-12T06:40:15;101066.94;;;20.88;100.00
14343;BME280;7255;53.596;9.960;2023-09-12T06:42:42;101064.47;;;20.87;100.00
14343;BME280;7255;53.596;9.960;2023-09-12T06:45:09;101072.41;;;20.88;100.00
14343;BME280;7255;53.596;9.960;2023-09-12T06:47:36;101066.34;;;20.91;100.00
14343;BME280;7255;53.596;9.960;2023-09-12T06:50:02;101079.97;;;20.96;100.00
14343;BME280;7255;53.596;9.960;2023-09-12T06:52:30;101075.66;;;20.90;100.00
14343;BME280;7255;53.596;9.960;2023-09-12T06:54:56;101079.97;;;20.96;100.00
14343;BME280;7255;53.596;9.960;2023-09-12T06:57:22;101093.00;;;21.05;100.00
14343;BME280;7255;53.596;9.960;2023-09-12T06:59:49;101093.81;;;21.05;100.00
14343;BME280;7255;53.596;9.960;2023-09-12T07:02:15;101088.84;;;21.12;100.00
14343;BME280;7255;53.596;9.960;2023-09-12T07:04:43;101096.50;;;21.10;100.00
14343;BME280;7255;53.596;9.960;2023-09-12T07:07:09;101083.88;;;21.20;100.00
14343;BME280;7255;53.596;9.960;2023-09-12T07:09:37;101085.97;;;21.28;100.00
14343;BME280;7255;53.596;9.960;2023-09-12T07:12:03;101088.09;;;21.36;100.00
14343;BME280;7255;53.596;9.960;2023-09-12T07:14:30;101075.91;;;21.52;100.00
14343;BME280;7255;53.596;9.960;2023-09-12T07:16:57;101084.28;;;21.61;100.00
14343;BME280;7255;53.596;9.960;2023-09-12T07:19:23;101085.22;;;21.51;100.00
14343;BME280;7255;53.596;9.960;2023-09-12T07:21:49;101078.69;;;21.47;100.00
14343;BME280;7255;53.596;9.960;2023-09-12T07:24:16;101090.09;;;21.55;100.00
14343;BME280;7255;53.596;9.960;2023-09-12T07:26:43;101079.88;;;21.65;100.00
14343;BME280;7255;53.596;9.960;2023-09-12T07:29:11;101090.44;;;21.72;100.00
14343;BME280;7255;53.596;9.960;2023-09-12T07:31:38;101095.34;;;21.75;100.00
14343;BME280;7255;53.596;9.960;2023-09-12T07:34:04;101087.66;;;21.77;100.00
14343;BME280;7255;53.596;9.960;2023-09-12T07:36:31;101089.75;;;21.85;100.00
14343;BME280;7255;53.596;9.960;2023-09-12T07:38:57;101099.06;;;21.84;100.00
14343;BME280;7255;53.596;9.960;2023-09-12T07:41:24;101094.06;;;21.91;100.00
14343;BME280;7255;53.596;9.960;2023-09-12T07:43:51;101068.56;;;21.72;100.00
14343;BME280;7255;53.596;9.960;2023-09-12T07:46:17;101068.56;;;21.72;100.00
14343;BME280;7255;53.596;9.960;2023-09-12T07:48:44;101056.25;;;21.75;100.00
14343;BME280;7255;53.596;9.960;2023-09-12T07:51:13;101066.00;;;21.81;100.00
14343;BME280;7255;53.596;9.960;2023-09-12T07:53:40;101066.97;;;21.71;100.00
14343;BME280;7255;53.596;9.960;2023-09-12T07:56:08;101066.31;;;21.79;100.00
14343;BME280;7255;53.596;9.960;2023-09-12T07:58:34;101073.34;;;21.85;100.00
14343;BME280;7255;53.596;9.960;2023-09-12T08:01:05;101082.94;;;21.83;100.00
14343;BME280;7255;53.596;9.960;2023-09-12T08:03:32;101086.25;;;22.04;100.00
14343;BME280;7255;53.596;9.960;2023-09-12T08:05:59;101079.47;;;22.20;100.00
14343;BME280;7255;53.596;9.960;2023-09-12T08:08:25;101088.19;;;22.22;100.00
14343;BME280;7255;53.596;9.960;2023-09-12T08:10:51;101078.53;;;22.30;100.00
14343;BME280;7255;53.596;9.960;2023-09-12T08:13:18;101090.38;;;22.44;100.00
14343;BME280;7255;53.596;9.960;2023-09-12T08:15:44;101100.56;;;22.58;100.00
14343;BME280;7255;53.596;9.960;2023-09-12T08:18:12;101106.12;;;22.72;100.00
14343;BME280;7255;53.596;9.960;2023-09-12T08:20:38;101115.53;;;22.84;100.00
14343;BME280;7255;53.596;9.960;2023-09-12T08:23:04;101120.09;;;22.89;100.00
14343;BME280;7255;53.596;9.960;2023-09-12T08:25:31;101120.09;;;23.08;100.00
14343;BME280;7255;53.596;9.960;2023-09-12T08:27:57;101122.94;;;23.17;100.00
14343;BME280;7255;53.596;9.960;2023-09-12T08:30:24;101137.38;;;23.22;100.00
14343;BME280;7255;53.596;9.960;2023-09-12T08:32:50;101134.03;;;23.25;100.00
14343;BME280;7255;53.596;9.960;2023-09-12T08:35:18;101120.91;;;23.09;100.00
14343;BME280;7255;53.596;9.960;2023-09-12T08:37:44;101111.63;;;23.23;100.00
14343;BME280;7255;53.596;9.960;2023-09-12T08:40:11;101116.44;;;23.13;100.00
14343;BME280;7255;53.596;9.960;2023-09-12T08:42:39;101114.84;;;23.12;100.00
14343;BME280;7255;53.596;9.960;2023-09-12T08:45:11;101117.47;;;23.17;100.00
14343;BME280;7255;53.596;9.960;2023-09-12T08:47:39;101125.88;;;23.39;100.00
14343;BME280;7255;53.596;9.960;2023-09-12T08:50:08;101134.22;;;23.62;100.00
14343;BME280;7255;53.596;9.960;2023-09-12T08:52:37;101145.84;;;23.87;100.00
14343;BME280;7255;53.596;9.960;2023-09-12T08:55:04;101132.59;;;23.61;100.00
14343;BME280;7255;53.596;9.960;2023-09-12T08:57:32;101139.09;;;23.65;100.00
14343;BME280;7255;53.596;9.960;2023-09-12T09:00:00;101149.31;;;23.92;100.00
14343;BME280;7255;53.596;9.960;2023-09-12T09:02:30;101149.66;;;23.72;100.00
14343;BME280;7255;53.596;9.960;2023-09-12T09:04:57;101133.06;;;23.82;100.00
14343;BME280;7255;53.596;9.960;2023-09-12T09:07:25;101137.12;;;23.98;100.00
14343;BME280;7255;53.596;9.960;2023-09-12T09:09:52;101150.12;;;23.93;100.00
14343;BME280;7255;53.596;9.960;2023-09-12T09:12:19;101142.91;;;24.11;100.00
14343;BME280;7255;53.596;9.960;2023-09-12T09:14:45;101148.87;;;24.40;100.00
14343;BME280;7255;53.596;9.960;2023-09-12T09:17:12;101138.50;;;24.37;100.00
14343;BME280;7255;53.596;9.960;2023-09-12T09:19:41;101152.72;;;24.53;100.00
14343;BME280;7255;53.596;9.960;2023-09-12T09:22:08;101142.53;;;24.68;100.00
14343;BME280;7255;53.596;9.960;2023-09-12T09:24:34;101144.09;;;24.83;100.00
14343;BME280;7255;53.596;9.960;2023-09-12T09:27:02;101140.78;;;24.94;100.00
14343;BME280;7255;53.596;9.960;2023-09-12T09:29:29;101145.37;;;24.49;100.00
14343;BME280;7255;53.596;9.960;2023-09-12T09:31:58;101152.56;;;24.22;100.00
14343;BME280;7255;53.596;9.960;2023-09-12T09:34:25;101147.88;;;23.95;100.00
14343;BME280;7255;53.596;9.960;2023-09-12T09:36:55;101142.81;;;24.02;100.00
14343;BME280;7255;53.596;9.960;2023-09-12T09:39:24;101145.03;;;24.14;100.00
14343;BME280;7255;53.596;9.960;2023-09-12T09:41:51;101154.59;;;24.16;100.00
14343;BME280;7255;53.596;9.960;2023-09-12T09:44:20;101149.06;;;24.44;100.00
14343;BME280;7255;53.596;9.960;2023-09-12T09:46:50;101146.03;;;24.32;100.00
14343;BME280;7255;53.596;9.960;2023-09-12T09:49:19;101156.59;;;24.25;100.00
14343;BME280;7255;53.596;9.960;2023-09-12T09:51:45;101140.53;;;24.32;100.00
14343;BME280;7255;53.596;9.960;2023-09-12T09:54:12;101147.62;;;24.47;100.00
14343;BME280;7255;53.596;9.960;2023-09-12T09:56:44;101155.78;;;24.38;100.00
14343;BME280;7255;53.596;9.960;2023-09-12T09:59:14;101157.81;;;24.32;100.00
14343;BME280;7255;53.596;9.960;2023-09-12T10:01:43;101161.50;;;24.28;100.00
14343;BME280;7255;53.596;9.960;2023-09-12T10:04:09;101170.44;;;24.06;100.00
14343;BME280;7255;53.596;9.960;2023-09-12T10:06:37;101175.41;;;23.90;100.00
14343;BME280;7255;53.596;9.960;2023-09-12T10:09:06;101176.72;;;23.78;100.00
14343;BME280;7255;53.596;9.960;2023-09-12T10:11:33;101176.34;;;23.99;100.00
14343;BME280;7255;53.596;9.960;2023-09-12T10:14:02;101176.16;;;24.09;100.00
14343;BME280;7255;53.596;9.960;2023-09-12T10:16:30;101170.56;;;24.00;100.00
14343;BME280;7255;53.596;9.960;2023-09-12T10:19:04;101169.19;;;23.70;100.00
14343;BME280;7255;53.596;9.960;2023-09-12T10:21:35;101167.31;;;23.52;100.00
14343;BME280;7255;53.596;9.960;2023-09-12T10:24:03;101184.00;;;23.69;100.00
14343;BME280;7255;53.596;9.960;2023-09-12T10:26:31;101172.81;;;23.66;100.00
14343;BME280;7255;53.596;9.960;2023-09-12T10:28:57;101172.56;;;23.48;100.00
14343;BME280;7255;53.596;9.960;2023-09-12T10:31:26;101171.31;;;23.27;100.00
14343;BME280;7255;53.596;9.960;2023-09-12T10:33:53;101171.09;;;23.23;100.00
14343;BME280;7255;53.596;9.960;2023-09-12T10:36:21;101165.94;;;23.02;100.00
14343;BME280;7255;53.596;9.960;2023-09-12T10:38:48;101167.84;;;22.83;100.00
14343;BME280;7255;53.596;9.960;2023-09-12T10:41:16;101159.94;;;22.81;100.00
14343;BME280;7255;53.596;9.960;2023-09-12T10:43:43;101162.97;;;22.80;100.00
14343;BME280;7255;53.596;9.960;2023-09-12T10:46:11;101159.19;;;22.76;100.00
14343;BME280;7255;53.596;9.960;2023-09-12T10:48:38;101163.78;;;22.80;100.00
14343;BME280;7255;53.596;9.960;2023-09-12T10:51:06;101152.31;;;22.59;100.00
14343;BME280;7255;53.596;9.960;2023-09-12T10:53:35;101145.00;;;22.74;100.00
14343;BME280;7255;53.596;9.960;2023-09-12T10:56:16;101153.66;;;22.81;100.00
14343;BME280;7255;53.596;9.960;2023-09-12T10:59:13;101158.38;;;22.94;100.00
14343;BME280;7255;53.596;9.960;2023-09-12T11:01:41;101152.75;;;22.66;100.00
14343;BME280;7255;53.596;9.960;2023-09-12T11:04:33;101159.50;;;22.74;100.00
14343;BME280;7255;53.596;9.960;2023-09-12T11:07:32;101151.78;;;22.76;100.00
14343;BME280;7255;53.596;9.960;2023-09-12T11:10:21;101156.09;;;22.82;100.00
14343;BME280;7255;53.596;9.960;2023-09-12T11:12:49;101154.75;;;22.61;100.00
14343;BME280;7255;53.596;9.960;2023-09-12T11:15:15;101143.28;;;22.78;100.00
14343;BME280;7255;53.596;9.960;2023-09-12T11:17:43;101148.75;;;22.78;100.00
14343;BME280;7255;53.596;9.960;2023-09-12T11:20:10;101144.16;;;22.92;100.00
14343;BME280;7255;53.596;9.960;2023-09-12T11:22:38;101154.66;;;23.23;100.00
14343;BME280;7255;53.596;9.960;2023-09-12T11:25:15;101150.47;;;23.44;100.00
14343;BME280;7255;53.596;9.960;2023-09-12T11:28:01;101147.19;;;23.42;100.00
14343;BME280;7255;53.596;9.960;2023-09-12T11:30:28;101141.28;;;23.35;100.00
14343;BME280;7255;53.596;9.960;2023-09-12T11:32:57;101143.94;;;23.40;100.00
14343;BME280;7255;53.596;9.960;2023-09-12T11:35:25;101153.81;;;23.55;100.00
14343;BME280;7255;53.596;9.960;2023-09-12T11:37:53;101153.50;;;23.57;100.00
14343;BME280;7255;53.596;9.960;2023-09-12T11:40:23;101156.38;;;23.66;100.00
14343;BME280;7255;53.596;9.960;2023-09-12T11:42:51;101159.19;;;23.47;100.00
14343;BME280;7255;53.596;9.960;2023-09-12T11:45:18;101153.72;;;23.47;100.00
14343;BME280;7255;53.596;9.960;2023-09-12T11:47:46;101159.91;;;23.52;100.00
14343;BME280;7255;53.596;9.960;2023-09-12T11:50:26;101155.09;;;23.44;100.00
14343;BME280;7255;53.596;9.960;2023-09-12T11:52:58;101157.75;;;23.49;100.00
14343;BME280;7255;53.596;9.960;2023-09-12T11:55:25;101156.97;;;23.49;100.00
14343;BME280;7255;53.596;9.960;2023-09-12T11:57:53;101153.91;;;23.50;100.00
14343;BME280;7255;53.596;9.960;2023-09-12T12:00:19;101158.34;;;23.46;100.00
14343;BME280;7255;53.596;9.960;2023-09-12T12:02:46;101151.25;;;23.45;100.00
14343;BME280;7255;53.596;9.960;2023-09-12T12:05:12;101150.75;;;23.10;100.00
14343;BME280;7255;53.596;9.960;2023-09-12T12:07:39;101156.47;;;23.14;100.00
14343;BME280;7255;53.596;9.960;2023-09-12T12:10:08;101144.72;;;23.27;100.00
14343;BME280;7255;53.596;9.960;2023-09-12T12:12:34;101151.66;;;23.38;100.00
14343;BME280;7255;53.596;9.960;2023-09-12T12:15:02;101143.75;;;23.51;100.00
14343;BME280;7255;53.596;9.960;2023-09-12T12:17:29;101148.44;;;23.50;100.00
14343;BME280;7255;53.596;9.960;2023-09-12T12:19:56;101140.50;;;23.49;100.00
14343;BME280;7255;53.596;9.960;2023-09-12T12:22:22;101132.37;;;23.43;100.00
14343;BME280;7255;53.596;9.960;2023-09-12T12:24:49;101128.31;;;23.41;100.00
14343;BME280;7255;53.596;9.960;2023-09-12T12:27:16;101126.28;;;23.47;100.00
14343;BME280;7255;53.596;9.960;2023-09-12T12:29:42;101122.03;;;23.54;100.00
14343;BME280;7255;53.596;9.960;2023-09-12T12:32:14;101115.91;;;23.43;100.00
14343;BME280;7255;53.596;9.960;2023-09-12T12:34:41;101109.00;;;23.46;100.00
14343;BME280;7255;53.596;9.960;2023-09-12T12:37:09;101108.00;;;23.42;100.00
14343;BME280;7255;53.596;9.960;2023-09-12T12:39:37;101099.22;;;23.26;100.00
14343;BME280;7255;53.596;9.960;2023-09-12T12:42:05;101090.09;;;23.31;100.00
14343;BME280;7255;53.596;9.960;2023-09-12T12:44:33;101085.00;;;23.24;100.00
14343;BME280;7255;53.596;9.960;2023-09-12T12:47:03;101085.63;;;23.35;100.00
14343;BME280;7255;53.596;9.960;2023-09-12T12:49:36;101076.94;;;23.47;100.00
14343;BME280;7255;53.596;9.960;2023-09-12T12:52:04;101081.00;;;23.49;100.00